• Join FlightAware (Why Join?)
  • Login
  • US Flag 
08:55AM EDT


 

Airport Tracker/Info


-or-


 

Live Flight TrackerFlight Track Log ✈ CSN6878 ✈ 25-Jul-2014 ✈ ZWKC / KCA - ZWWW / URC

Flight Track Log - Related Links

Times and Time Zones

All times are in EDT time to prevent confusion due to time zone crossing. See the CSN6878 flight status page for this flight to view local times or setup timezone preferences in your user account.

Time Position Orientation Groundspeed Altitude Reporting Facility
EDT Latitude Longitude Course Direction KTS MPH feet Rate Location/Type
11:24AM 42.3136 84.1424 55° Northeast  Level Estimated
11:25AM 42.3790 84.2721 56° Northeast  Level Estimated
11:26AM 42.4443 84.4021 56° Northeast  Level Estimated
11:27AM 42.5095 84.5324 56° Northeast  Level Estimated
11:28AM 42.5745 84.6629 56° Northeast  Level Estimated
11:29AM 42.6393 84.7938 56° Northeast  Level Estimated
11:30AM 42.7040 84.9248 56° Northeast  Level Estimated
11:31AM 42.7686 85.0562 56° Northeast  Level Estimated
11:32AM 42.8330 85.1878 56° Northeast  Level Estimated
11:33AM 42.8973 85.3197 56° Northeast  Level Estimated
11:34AM 42.9614 85.4519 56° Northeast  Level Estimated
11:35AM 43.0253 85.5844 57° Northeast  Level Estimated
11:36AM 43.0891 85.7171 57° Northeast  Level Estimated
11:37AM 43.1528 85.8501 57° Northeast  Level Estimated
11:38AM 43.2163 85.9834 57° Northeast  Level Estimated
11:39AM 43.2796 86.1170 57° Northeast  Level Estimated
11:40AM 43.3428 86.2508 57° Northeast  Level Estimated
11:41AM 43.4058 86.3849 57° Northeast  Level Estimated
11:42AM 43.4687 86.5193 57° Northeast  Level Estimated
11:43AM 43.5314 86.6540 57° Northeast  Level Estimated
11:44AM 43.5939 86.7889 57° Northeast  Level Estimated
11:45AM 43.6563 86.9242 57° Northeast  Level Estimated
11:46AM 43.7185 87.0597 58° Northeast  Level Estimated
11:47AM 43.7806 87.1955 58° Northeast  Level Estimated
11:48AM 43.8425 87.3316 58° Northeast  Level Estimated
11:49AM 43.9043 87.4680 58° Northeast  Level Estimated
11:50AM 43.9071 87.4742 58° Northeast  Level Estimated
11:51AM 43.9071 87.4742 North  Level Estimated
11:52AM 43.9071 87.4742 North  Level Estimated
11:53AM 43.9071 87.4742 North  Level Estimated
11:54AM 43.9071 87.4742 North  Level Estimated
11:55AM 43.9071 87.4742 North  Level Estimated
11:56AM 43.9071 87.4742 North  Level Estimated
11:57AM 43.9071 87.4742 North  Level Estimated
11:58AM 43.9071 87.4742 North  Level Estimated
11:59AM 43.9071 87.4742 North  Level Estimated
12:00PM 43.9071 87.4742 North  Level Estimated
12:01PM 43.9071 87.4742 North  Level Estimated
12:02PM 43.9071 87.4742 North  Level Estimated
12:03PM 43.9071 87.4742 North  Level Estimated
12:04PM 43.9071 87.4742 North  Level Estimated
12:05PM 43.9071 87.4742 North  Level Estimated